This is the latest recevied weather packets stored in our database for station/object NO9B. If no packets are shown the sender has not sent any weather packets the latest 1 day(s).
| Time | Temp. | Humidity | Pressure | Rain* | Wind** | Luminosity | Snow |
|---|---|---|---|---|---|---|---|
| 1778033950 | 9.44° C | 44% | 1011 hPa | 0 mm | 0.45 m/s, 261° | 0 W/m² | - |
| 1778033647 | 9.44° C | 44% | 1010.9 hPa | 0 mm | 0.89 m/s, 252° | 0 W/m² | - |
| 1778033343 | 9.44° C | 42% | 1010.7 hPa | 0 mm | 0.89 m/s, 271° | 0 W/m² | - |
| 1778033042 | 9.44° C | 43% | 1010.7 hPa | 0 mm | 0.89 m/s, 278° | 0 W/m² | - |
| 1778032739 | 10° C | 39% | 1010.7 hPa | 0 mm | 0.45 m/s, 286° | 0 W/m² | - |
| 1778032436 | 10° C | 41% | 1010.6 hPa | 0 mm | 0 m/s | 0 W/m² | - |
| 1778032133 | 10° C | 40% | 1010.6 hPa | 0 mm | 0.45 m/s, 267° | 0 W/m² | - |
| 1778031830 | 10.56° C | 39% | 1010.4 hPa | 0 mm | 0.45 m/s, 285° | 0 W/m² | - |
| 1778031526 | 10.56° C | 38% | 1010.1 hPa | 0 mm | 0.89 m/s, 318° | 0 W/m² | - |
| 1778031224 | 10.56° C | 39% | 1010 hPa | 0 mm | 1.34 m/s, 313° | 0 W/m² | - |
| 1778030920 | 10.56° C | 39% | 1009.8 hPa | 0 mm | 0.45 m/s, 243° | 0 W/m² | - |
| 1778030617 | 11.11° C | 35% | 1009.9 hPa | 0 mm | 0.89 m/s, 317° | 0 W/m² | - |
| 1778030314 | 11.11° C | 36% | 1009.8 hPa | 0 mm | 0.89 m/s, 319° | 0 W/m² | - |
| 1778030011 | 11.11° C | 35% | 1009.9 hPa | 0 mm | 1.34 m/s, 334° | 0 W/m² | - |
| 1778029709 | 11.11° C | 35% | 1009.7 hPa | 0 mm | 0.89 m/s, 318° | 0 W/m² | - |
| 1778029406 | 11.11° C | 34% | 1009.7 hPa | 0 mm | 0.45 m/s, 315° | 1 W/m² | - |
| 1778029103 | 11.67° C | 33% | 1009.9 hPa | 0 mm | 1.34 m/s, 329° | 1 W/m² | - |
| 1778028800 | 11.67° C | 35% | 1009.6 hPa | 0 mm | 0.89 m/s, 323° | 1 W/m² | - |
| 1778028496 | 11.67° C | 33% | 1009.5 hPa | 0 mm | 1.79 m/s, 344° | 2 W/m² | - |
| 1778028194 | 11.67° C | 32% | 1009.5 hPa | 0 mm | 1.79 m/s, 340° | 3 W/m² | - |
| 1778027889 | 11.67° C | 33% | 1009.5 hPa | 0 mm | 1.34 m/s, 326° | 4 W/m² | - |
| 1778027586 | 12.22° C | 31% | 1009.5 hPa | 0 mm | 0.89 m/s, 354° | 6 W/m² | - |
| 1778027282 | 12.22° C | 30% | 1009.2 hPa | 0 mm | 2.68 m/s, 354° | 7 W/m² | - |
| 1778026979 | 12.22° C | 32% | 1009.4 hPa | 0 mm | 3.13 m/s, 353° | 9 W/m² | - |
| 1778026674 | 12.22° C | 31% | 1009.2 hPa | 0 mm | 1.79 m/s, 347° | 11 W/m² | - |
* Rain latest hour (hover to see other rain measurements)
** Current wind speed in m/s (hover to see current wind gust speed)